M I D A S
Marine Information and Data Acquisition System
Tripno 150 of the Zeeleeuw from 2001-08-21 06:17:17 to 2001-08-21 18:35:00
Back to CruiseResearch ActivitiesStationsMapUnderway DataData graphs

EquipmentUnitsComment
TimeDGPSUTC
LatitudeDGPSDM.mWGS84
LongitudeDGPSDM.mWGS84
HeadingGyrodeg 
SOGDGPSknotsSpeed over ground
COGDGPSdegCourse over ground
DepthEcho soundermeters200 kHz
Missing or incorrect values are displayed as -999
Navigation data collected by the RV Zeeleeuw from 2001-08-21 06:17:17 to 2001-08-21 18:35:00
                                                                                    Next 1000 lines
Time Latitude Longitude Heading SOG COG Depth
2001-08-21 06:17:27 51°13.68 2°55.92 128.2 0.1 174 6
2001-08-21 06:17:33 51°13.678 2°55.92 128.2 0.1 171 6
2001-08-21 06:17:39 51°13.678 2°55.921 128.2   165.4 6
2001-08-21 06:17:47 51°13.678 2°55.921 128.2   160 -999
2001-08-21 06:17:53 51°13.678 2°55.921 128   320.7 5.9
2001-08-21 06:19:11 51°13.678 2°55.921 128.2   117.7 5.8
2001-08-21 06:19:17 51°13.678 2°55.921 128.2   59.3 5.9
2001-08-21 06:19:21 51°13.678 2°55.921 128.2   18.2 5.9
2001-08-21 06:19:27 51°13.678 2°55.921 128   26.4 5.9
2001-08-21 06:19:31 51°13.678 2°55.921 128   353.4 5.9
2001-08-21 06:19:37 51°13.678 2°55.921 128   88.1 -999
2001-08-21 06:19:41 51°13.678 2°55.921 128   148.5 5.7
2001-08-21 06:19:47 51°13.678 2°55.921 128   328.8 5.7
2001-08-21 06:19:51 51°13.678 2°55.921 128   344.5 -999
2001-08-21 06:19:57 51°13.678 2°55.921 128   181.4 5.9
2001-08-21 06:20:01 51°13.678 2°55.921 128   72.5 5.9
2001-08-21 06:20:05 51°13.678 2°55.921 128.2   34.6 5.9
2001-08-21 06:20:11 51°13.678 2°55.921 128.2   241.4 5.9
2001-08-21 06:20:17 51°13.678 2°55.921 128.2   308.3 5.9
2001-08-21 06:20:21 51°13.678 2°55.921 128   1.8 5.9
2001-08-21 06:20:27 51°13.678 2°55.921 128   21.7 5.9
2001-08-21 06:20:31 51°13.678 2°55.921 128   351.8 5.9
2001-08-21 06:20:34 51°13.678 2°55.921 128   342.5 5.9
2001-08-21 06:20:41 51°13.678 2°55.922 128   345.2 5.9
2001-08-21 06:20:45 51°13.678 2°55.922 128.2   21.9 5.9
2001-08-21 06:20:51 51°13.678 2°55.922 128.2   59.5 5.9
2001-08-21 06:20:57 51°13.678 2°55.922 128.2   146 5.9
2001-08-21 06:21:01 51°13.678 2°55.922 128.2   341.1 5.9
2001-08-21 06:21:07 51°13.678 2°55.922 128.2   320.5 5.9
2001-08-21 06:21:11 51°13.678 2°55.922 128   257.9 5.9
2001-08-21 06:21:15 51°13.678 2°55.922 128   345.4 5.9
2001-08-21 06:21:21 51°13.678 2°55.922 128   13.9 5.9
2001-08-21 06:21:27 51°13.678 2°55.922 128.2   166.4 5.7
2001-08-21 06:21:31 51°13.678 2°55.922 128.2   181.6 -999
2001-08-21 06:21:37 51°13.678 2°55.922 128   209.6 5.9
2001-08-21 06:21:41 51°13.678 2°55.922 128   63.9 5.9
2001-08-21 06:21:47 51°13.678 2°55.922 128   63.2 5.9
2001-08-21 06:21:51 51°13.678 2°55.922 128.2   8.8 -999
2001-08-21 06:21:57 51°13.678 2°55.922 128   169.6 5.9
2001-08-21 06:22:01 51°13.678 2°55.922 128   336.5 5.9
2001-08-21 06:22:07 51°13.678 2°55.922 128   21.6 5.9
2001-08-21 06:22:11 51°13.678 2°55.922 128.2   65.6 -999
2001-08-21 06:22:17 51°13.678 2°55.922 128.2   145.2 5.8
2001-08-21 06:22:21 51°13.678 2°55.922 128.2   156.7 5.9
2001-08-21 06:22:27 51°13.678 2°55.922 128.2   133.1 5.9
2001-08-21 06:22:31 51°13.678 2°55.922 128.2   344.9 5.9
2001-08-21 06:22:37 51°13.678 2°55.922 128.2   354.4 5.9
2001-08-21 06:22:41 51°13.678 2°55.922 128.2   348.5 5.9
2001-08-21 06:22:45 51°13.678 2°55.922 128.2   356.4 5.9
2001-08-21 06:22:51 51°13.678 2°55.922 128.2   2.3 5.9
2001-08-21 06:22:57 51°13.678 2°55.922 128.3   176.8 5.7
2001-08-21 06:23:01 51°13.678 2°55.922 128.3   170.2 5.9
2001-08-21 06:23:07 51°13.678 2°55.922 128.3   171.1 5.9
2001-08-21 06:23:11 51°13.678 2°55.922 128.2   338.6 5.8
2001-08-21 06:23:17 51°13.678 2°55.922 128.2   341.5 5.8
2001-08-21 06:23:21 51°13.678 2°55.922 128.2   133.8 5.9
2001-08-21 06:23:39 51°13.678 2°55.922 128.2   144.5 5.9
2001-08-21 06:23:43 51°13.678 2°55.922 128.2   189 5.9
2001-08-21 06:23:49 51°13.678 2°55.922 128   309.3 -999
2001-08-21 06:23:53 51°13.678 2°55.922 128   331.8 -999
2001-08-21 06:23:59 51°13.678 2°55.922 128   354.5 5.6
2001-08-21 06:24:03 51°13.678 2°55.921 128   354.1 -999
2001-08-21 06:24:09 51°13.678 2°55.922 128   354.5 5.7
2001-08-21 06:24:13 51°13.678 2°55.922 128   328.9 -999
2001-08-21 06:24:19 51°13.678 2°55.922 128   147.5 5.7
2001-08-21 06:24:23 51°13.678 2°55.922 128.2   160.5 5.7
2001-08-21 06:24:27 51°13.678 2°55.922 128.2   355.8 5.9
2001-08-21 06:24:33 51°13.678 2°55.922 128.2   356.3 5.8
2001-08-21 06:24:39 51°13.678 2°55.921 128.2   9.3 5.9
2001-08-21 06:24:43 51°13.678 2°55.921 128   261.9 5.8
2001-08-21 06:24:47 51°13.678 2°55.922 128   320 5.8
2001-08-21 06:24:53 51°13.678 2°55.922 128   356 5.9
2001-08-21 06:24:59 51°13.678 2°55.922 128   348.2 5.8
2001-08-21 06:25:03 51°13.678 2°55.922 128   55.5 5.7
2001-08-21 06:25:09 51°13.678 2°55.922 128   14.8 -999
2001-08-21 06:25:14 51°13.678 2°55.922 128.2   4.2 -999
2001-08-21 06:25:19 51°13.678 2°55.922 128.2   7.2 5.8
2001-08-21 06:25:23 51°13.678 2°55.922 128   352.2 5.6
2001-08-21 06:25:29 51°13.678 2°55.922 128   280 5.8
2001-08-21 06:25:33 51°13.678 2°55.922 128   318 5.8
2001-08-21 06:25:39 51°13.678 2°55.922 128   317.1 5.8
2001-08-21 06:25:43 51°13.678 2°55.922 128   339.1 5.6
2001-08-21 06:25:49 51°13.678 2°55.922 128   111.1 5.8
2001-08-21 06:25:53 51°13.678 2°55.922 128   133.2 -999
2001-08-21 06:25:59 51°13.678 2°55.922 128   355.4 5.7
2001-08-21 06:26:03 51°13.678 2°55.922 128   174.5 5.7
2001-08-21 06:26:07 51°13.678 2°55.922 128   180.3 5.5
2001-08-21 06:26:13 51°13.678 2°55.922 128   346 5.7
2001-08-21 06:26:19 51°13.678 2°55.922 128   353.2 -999
2001-08-21 06:26:23 51°13.678 2°55.923 128   354.8 5.8
2001-08-21 06:26:29 51°13.678 2°55.923 128   332.9 5.8
2001-08-21 06:26:33 51°13.678 2°55.923 128   320.4 5.8
2001-08-21 06:26:39 51°13.678 2°55.923 128   318.8 5.8
2001-08-21 06:26:43 51°13.678 2°55.923 128   359.9 5.6
2001-08-21 06:26:49 51°13.678 2°55.923 128   27.6 5.8
2001-08-21 06:26:53 51°13.678 2°55.923 127.8   104.5 5.8
2001-08-21 06:26:57 51°13.678 2°55.923 127.8   167.7 5.8
2001-08-21 06:27:03 51°13.678 2°55.923 127.8   272.6 -999
2001-08-21 06:27:09 51°13.678 2°55.923 128   294.3 5.8
2001-08-21 06:27:13 51°13.678 2°55.923 128   174.4 5.8
2001-08-21 06:27:19 51°13.678 2°55.923 128   170.1 5.8
2001-08-21 06:27:23 51°13.678 2°55.923 128   172.7 5.8
2001-08-21 06:27:29 51°13.678 2°55.923 128   201.1 5.8
2001-08-21 06:27:33 51°13.678 2°55.923 128   300.4 5.8
2001-08-21 06:27:39 51°13.678 2°55.923 128   349.3 5.8
2001-08-21 06:27:43 51°13.678 2°55.923 128   324.6 5.8
2001-08-21 06:27:47 51°13.678 2°55.923 128   10.7 5.8
2001-08-21 06:27:53 51°13.678 2°55.923 128   56.3 5.8
2001-08-21 06:27:59 51°13.678 2°55.923 127.8   38.9 5.8
2001-08-21 06:28:03 51°13.678 2°55.923 127.8   16.2 5.8
2001-08-21 06:28:09 51°13.678 2°55.923 127.8   347.1 5.8
2001-08-21 06:28:13 51°13.678 2°55.923 128   336.5 5.8
2001-08-21 06:28:17 51°13.678 2°55.923 128   348 5.8
2001-08-21 06:28:23 51°13.678 2°55.923 127.8   5 5.6
2001-08-21 06:28:29 51°13.678 2°55.923 127.8   100.6 5.8
2001-08-21 06:28:33 51°13.678 2°55.923 128   174.1 5.8
2001-08-21 06:28:39 51°13.678 2°55.923 128   177.4 5.9
2001-08-21 06:28:43 51°13.678 2°55.923 128   188.7 5.8
2001-08-21 06:28:49 51°13.678 2°55.923 128   359.1 5.8
2001-08-21 06:28:53 51°13.678 2°55.923 128   50.8 5.8
2001-08-21 06:28:59 51°13.678 2°55.923 127.8   74.2 5.8
2001-08-21 06:29:03 51°13.678 2°55.923 127.8   160.7 5.8
2001-08-21 06:29:09 51°13.678 2°55.923 127.8   192.1 5.8
2001-08-21 06:29:13 51°13.678 2°55.923 128   349.7 5.6
2001-08-21 06:29:19 51°13.678 2°55.923 128   8.5 5.6
2001-08-21 06:29:23 51°13.678 2°55.923 128   355 5.8
2001-08-21 06:29:27 51°13.678 2°55.923 128   320.3 5.8
2001-08-21 06:29:33 51°13.678 2°55.923 128   169.5 5.8
2001-08-21 06:29:39 51°13.678 2°55.923 128   179.7 5.8
2001-08-21 06:29:43 51°13.678 2°55.923 128   83.8 5.8
2001-08-21 06:29:49 51°13.678 2°55.923 128   341.6 5.8
2001-08-21 06:29:53 51°13.678 2°55.923 128   337.1 5.8
2001-08-21 06:29:59 51°13.678 2°55.923 128   336.6 5.8
2001-08-21 06:30:03 51°13.678 2°55.923 128   254.1 5.8
2001-08-21 06:30:09 51°13.678 2°55.923 128   164.4 5.8
2001-08-21 06:30:13 51°13.678 2°55.923 128   303.7 5.8
2001-08-21 06:30:18 51°13.678 2°55.923 128   337.6 5.8
2001-08-21 06:30:23 51°13.678 2°55.923 128   349.5 5.7
2001-08-21 06:30:29 51°13.678 2°55.923 128   158.7 5.8
2001-08-21 06:30:33 51°13.678 2°55.923 128   155.3 5.8
2001-08-21 06:30:37 51°13.678 2°55.923 128   149.4 5.8
2001-08-21 06:30:43 51°13.678 2°55.923 128   148.2 5.8
2001-08-21 06:30:49 51°13.678 2°55.923 128   37.8 5.4
2001-08-21 06:30:53 51°13.678 2°55.923 128   326.9 5.8
2001-08-21 06:30:59 51°13.678 2°55.922 128   326.1 5.7
2001-08-21 06:31:03 51°13.678 2°55.922 128   304.7 5.7
2001-08-21 06:31:07 51°13.678 2°55.922 128   322.9 5.7
2001-08-21 06:31:13 51°13.678 2°55.922 128   131.1 5.7
2001-08-21 06:31:17 51°13.678 2°55.922 128   133.5 5.7
2001-08-21 06:31:23 51°13.678 2°55.922 128   142 5.7
2001-08-21 06:31:29 51°13.678 2°55.922 128   144 5.7
2001-08-21 06:31:33 51°13.678 2°55.922 128   22.2 5.5
2001-08-21 06:31:39 51°13.678 2°55.922 128   8.3 5.7
2001-08-21 06:31:43 51°13.678 2°55.922 128   358.8 5.6
2001-08-21 06:31:49 51°13.678 2°55.922 128   155.8 5.7
2001-08-21 06:31:53 51°13.678 2°55.922 128   352 5.8
2001-08-21 06:31:59 51°13.678 2°55.922 128   359.5 5.8
2001-08-21 06:32:03 51°13.678 2°55.922 128   353.3 5.8
2001-08-21 06:32:09 51°13.678 2°55.922 128   351.7 5.7
2001-08-21 06:32:13 51°13.678 2°55.922 128   16.2 -999
2001-08-21 06:32:19 51°13.678 2°55.922 128   327.7 5.4
2001-08-21 06:32:23 51°13.678 2°55.922 128   128 -999
2001-08-21 06:32:29 51°13.678 2°55.922 128   96.3 5.6
2001-08-21 06:32:33 51°13.678 2°55.922 128   68.5 5.7
2001-08-21 06:32:39 51°13.678 2°55.922 128   155.3 5.7
2001-08-21 06:32:43 51°13.678 2°55.922 128   163.5 5.7
2001-08-21 06:32:49 51°13.678 2°55.922 128   65.1 5.7
2001-08-21 06:32:53 51°13.678 2°55.922 128   89.6 5.6
2001-08-21 06:32:59 51°13.678 2°55.922 128   344.5 5.7
2001-08-21 06:33:03 51°13.678 2°55.922 128   347.8 5.7
2001-08-21 06:33:07 51°13.678 2°55.922 128.2   332.6 5.7
2001-08-21 06:33:13 51°13.678 2°55.922 128.2   355.4 5.8
2001-08-21 06:33:19 51°13.678 2°55.922 128.2   132.3 5.7
2001-08-21 06:33:23 51°13.678 2°55.922 128.2   216.5 5.7
2001-08-21 06:33:29 51°13.678 2°55.922 128   308 5.8
2001-08-21 06:33:33 51°13.678 2°55.922 128   116.7 5.7
2001-08-21 06:33:39 51°13.678 2°55.922 128   129.4 5.6
2001-08-21 06:33:43 51°13.678 2°55.922 128.2   162.6 5.7
2001-08-21 06:33:49 51°13.678 2°55.922 128.2   175.1 5.7
2001-08-21 06:33:53 51°13.678 2°55.922 128.2   174.3 5.7
2001-08-21 06:33:59 51°13.678 2°55.922 128   297.9 5.7
2001-08-21 06:34:03 51°13.678 2°55.922 128   314.5 5.7
2001-08-21 06:34:07 51°13.678 2°55.922 128.2   338.2 5.7
2001-08-21 06:34:13 51°13.678 2°55.922 128.2   160.8 5.7
2001-08-21 06:34:17 51°13.678 2°55.922 128.2   166.8 5.7
2001-08-21 06:34:23 51°13.678 2°55.922 128   310.4 5.7
2001-08-21 06:34:27 51°13.678 2°55.922 128   327.6 5.7
2001-08-21 06:34:33 51°13.678 2°55.922 128   5.9 -999
2001-08-21 06:34:39 51°13.678 2°55.922 128.2   165 5.7
2001-08-21 06:34:43 51°13.678 2°55.922 128.2   177.4 -999
2001-08-21 06:34:49 51°13.678 2°55.923 128.3   154.4 5.7
2001-08-21 06:34:53 51°13.678 2°55.923 128.3   159.9 -999
2001-08-21 06:34:59 51°13.678 2°55.923 128.2   162.3 5.6
2001-08-21 06:35:03 51°13.678 2°55.922 128.2   178.2 5.6
2001-08-21 06:35:09 51°13.678 2°55.923 128.2   315.7 5.7
2001-08-21 06:35:13 51°13.678 2°55.923 128.2   341.1 5.7
2001-08-21 06:35:19 51°13.678 2°55.923 128.2   346.2 5.5
2001-08-21 06:35:23 51°13.678 2°55.923 128.2   356.8 5.7
2001-08-21 06:35:29 51°13.678 2°55.923 128.2   0.9 5.5
2001-08-21 06:35:33 51°13.678 2°55.923 128.2   44.4 5.6
2001-08-21 06:35:39 51°13.678 2°55.923 128.3   147.8 5.6
2001-08-21 06:35:43 51°13.678 2°55.923 128.7   129.5 5.6
2001-08-21 06:35:49 51°13.678 2°55.923 128.8   154.1 5.6
2001-08-21 06:35:53 51°13.678 2°55.923 129.2   108.2 5.6
2001-08-21 06:35:59 51°13.678 2°55.923 129.5   156.3 -999
2001-08-21 06:36:03 51°13.678 2°55.923 129.8   21 5.4
2001-08-21 06:36:09 51°13.678 2°55.923 130   280.1 -999
2001-08-21 06:36:13 51°13.678 2°55.923 130.2   243.4 5.7
2001-08-21 06:36:19 51°13.678 2°55.923 130.2   192.3 5.6
2001-08-21 06:36:23 51°13.678 2°55.923 130.3   172.4 5.6
2001-08-21 06:36:29 51°13.678 2°55.923 130.5   141.8 -999
2001-08-21 06:36:33 51°13.678 2°55.923 130.5   138.5 5.4
2001-08-21 06:36:39 51°13.678 2°55.923 130.7   115.9 -999
2001-08-21 06:36:43 51°13.677 2°55.923 130.8   213 5.7
2001-08-21 06:36:48 51°13.677 2°55.923 130.8   269.5 5.4
2001-08-21 06:36:53 51°13.677 2°55.923 131   264.5 5.5
2001-08-21 06:36:59 51°13.677 2°55.923 131.2   227.1 5.7
2001-08-21 06:37:03 51°13.677 2°55.923 131.3   207.9 5.6
2001-08-21 06:37:09 51°13.677 2°55.923 131.5   173.6 -999
2001-08-21 06:37:13 51°13.677 2°55.923 131.7   167.2 -999
2001-08-21 06:37:19 51°13.677 2°55.923 131.7   185.9 5.3
2001-08-21 06:37:23 51°13.677 2°55.923 131.7   230.1 5.6
2001-08-21 06:37:29 51°13.677 2°55.923 131.7   300 5.6
2001-08-21 06:37:33 51°13.677 2°55.923 131.8   348.1 5.5
2001-08-21 06:37:39 51°13.677 2°55.923 131.8   19 5.7
2001-08-21 06:37:43 51°13.677 2°55.923 131.7   90 5.6
2001-08-21 06:37:49 51°13.677 2°55.923 131.7   73.9 -999
2001-08-21 06:37:53 51°13.677 2°55.923 131.5   46.9 5.6
2001-08-21 06:37:59 51°13.677 2°55.923 131.5   37.4 5.5
2001-08-21 06:38:03 51°13.677 2°55.923 131.3   27.9 -999
2001-08-21 06:38:09 51°13.677 2°55.923 131.3   5.5 -999
2001-08-21 06:38:13 51°13.677 2°55.923 131.3   335.7 -999
2001-08-21 06:38:19 51°13.677 2°55.924 131.3   305.3 5.2
2001-08-21 06:38:23 51°13.677 2°55.924 131.5   257.3 5.6
2001-08-21 06:38:27 51°13.677 2°55.923 131.5   247.6 5.2
2001-08-21 06:38:33 51°13.677 2°55.923 131.5   284.1 5.6
2001-08-21 06:38:39 51°13.677 2°55.923 131.7   95.1 5.6
2001-08-21 06:38:43 51°13.677 2°55.923 131.7   112 5.6
2001-08-21 06:38:49 51°13.677 2°55.923 131.5   77 5.7
2001-08-21 06:38:53 51°13.677 2°55.923 131.5   43.6 -999
2001-08-21 06:38:59 51°13.677 2°55.923 131.3   41.5 -999
2001-08-21 06:39:03 51°13.677 2°55.924 131.2   51.7 5.2
2001-08-21 06:39:08 51°13.677 2°55.924 131.2   56.6 5.6
2001-08-21 06:39:13 51°13.677 2°55.924 131.2   175.4 5.6
2001-08-21 06:39:19 51°13.677 2°55.924 131.3   150.6 5.6
2001-08-21 06:39:23 51°13.677 2°55.924 131.3   335.2 -999
2001-08-21 06:39:29 51°13.677 2°55.924 131.3   344.8 -999
2001-08-21 06:39:34 51°13.677 2°55.924 131.2   354.7 -999
2001-08-21 06:39:39 51°13.677 2°55.924 131.2   75.8 5.6
2001-08-21 06:39:43 51°13.677 2°55.924 130.8   84.4 -999
2001-08-21 06:39:49 51°13.677 2°55.924 130.3 0.1 92.6 -999
2001-08-21 06:39:53 51°13.677 2°55.924 129.5 0.1 91.4 -999
2001-08-21 06:39:59 51°13.677 2°55.924 128.7 0.1 117.3 5.3
2001-08-21 06:40:03 51°13.677 2°55.925 128.2   133 5.4
2001-08-21 06:40:09 51°13.677 2°55.925 127.7   165.9 5.6
2001-08-21 06:40:13 51°13.677 2°55.925 127   164.6 -999
2001-08-21 06:40:19 51°13.677 2°55.924 126.3   162.3 5.6
2001-08-21 06:40:23 51°13.677 2°55.924 125.7   164.2 5.6
2001-08-21 06:40:29 51°13.677 2°55.924 125   162 5.5
2001-08-21 06:40:33 51°13.676 2°55.924 124.2 0.1 159.8 5.6
2001-08-21 06:40:39 51°13.676 2°55.924 123.3 0.1 166.2 5.2
2001-08-21 06:40:43 51°13.676 2°55.924 122.5 0.1 173.8 5.6
2001-08-21 06:40:49 51°13.676 2°55.924 121.7 0.1 171.4 -999
2001-08-21 06:40:53 51°13.676 2°55.924 120.8   172.5 5.6
2001-08-21 06:40:59 51°13.676 2°55.924 120   174.1 5.6
2001-08-21 06:41:03 51°13.676 2°55.924 119 0.1 169.3 5.6
2001-08-21 06:41:09 51°13.676 2°55.925 118 0.1 168.6 5.6
2001-08-21 06:41:13 51°13.676 2°55.924 117 0.1 176.7 5.6
2001-08-21 06:41:19 51°13.676 2°55.924 116.3   186.4 5.6
2001-08-21 06:41:23 51°13.676 2°55.924 115.7   226.2 5.5
2001-08-21 06:41:29 51°13.676 2°55.924 115   240.7 5.6
2001-08-21 06:41:33 51°13.676 2°55.924 114.7   262.8 5.6
2001-08-21 06:41:39 51°13.676 2°55.924 114.3 0.1 280.8 5.6
2001-08-21 06:41:43 51°13.676 2°55.924 114 0.1 283.8 5.5
2001-08-21 06:41:49 51°13.676 2°55.923 113.7 0.2 282.4 5.6
2001-08-21 06:41:53 51°13.676 2°55.923 113.7 0.2 286 5.7
2001-08-21 06:41:59 51°13.676 2°55.922 113.5 0.3 286.8 5.7
2001-08-21 06:42:03 51°13.676 2°55.921 113.5 0.4 288.4 5.8
2001-08-21 06:42:09 51°13.677 2°55.919 113.7 0.5 289.2 5.9
2001-08-21 06:42:13 51°13.677 2°55.918 113.8 0.6 291.3 6
2001-08-21 06:42:19 51°13.677 2°55.915 114 0.8 290.6 6.1
2001-08-21 06:42:23 51°13.678 2°55.913 114.2 1.1 291.4 6.3
2001-08-21 06:42:29 51°13.679 2°55.909 114.5 1.3 291.4 4.9
2001-08-21 06:42:33 51°13.68 2°55.906 114.7 1.9 292.1 -999
2001-08-21 06:42:39 51°13.681 2°55.9 114.8 2.2 292.7 -999
2001-08-21 06:42:44 51°13.683 2°55.894 114.8 2.5 293 -999
2001-08-21 06:42:48 51°13.684 2°55.889 114.7 2.9 293.2 -999
2001-08-21 06:42:53 51°13.686 2°55.882 114.5 3.3 293.2 -999
2001-08-21 06:42:59 51°13.688 2°55.873 114.3 3.6 293.1 -999
2001-08-21 06:43:04 51°13.69 2°55.865 113.8 3.8 292.9 -999
2001-08-21 06:43:09 51°13.692 2°55.857 113 3.9 292.9 -999
2001-08-21 06:43:15 51°13.695 2°55.848 112.2 3.8 292.4 -999
2001-08-21 06:43:19 51°13.696 2°55.842 111 3.7 292.1 -999
2001-08-21 06:43:23 51°13.698 2°55.837 109.8 3.6 291.4 -999
2001-08-21 06:43:29 51°13.7 2°55.828 108.5 3.5 290.3 -999
2001-08-21 06:43:33 51°13.701 2°55.822 107.2 3.4 289.1 -999
2001-08-21 06:43:39 51°13.703 2°55.814 105.7 3.4 287.9 -999
2001-08-21 06:43:44 51°13.704 2°55.806 104.2 3.4 287 -999
2001-08-21 06:43:49 51°13.705 2°55.799 102.8 3.4 285.7 -999
2001-08-21 06:43:53 51°13.706 2°55.794 101.3 3.3 284.7 8.4
2001-08-21 06:43:59 51°13.707 2°55.786 100 3.1 283.4 -999
2001-08-21 06:44:03 51°13.708 2°55.781 98.3 3.1 282.6 -999
2001-08-21 06:44:09 51°13.709 2°55.773 97 3 281.4 10.1
2001-08-21 06:44:13 51°13.709 2°55.768 95.7 2.9 280.3 10.8
2001-08-21 06:44:19 51°13.71 2°55.761 94.5 2.9 279.2 11.5
2001-08-21 06:44:23 51°13.71 2°55.756 93 2.8 277.6 11.7
2001-08-21 06:44:29 51°13.711 2°55.749 91.7 2.7 276.4 11.7
2001-08-21 06:44:33 51°13.711 2°55.745 90.2 2.6 275.3 11.6
2001-08-21 06:44:39 51°13.711 2°55.738 88.7 2.6 274.5 11.5
2001-08-21 06:44:43 51°13.711 2°55.734 87.3 2.5 273.4 10.8
2001-08-21 06:44:49 51°13.711 2°55.728 85.8 2.4 272.8 10.5
2001-08-21 06:44:53 51°13.711 2°55.724 84.3 2.3 271.5 10.5
2001-08-21 06:44:59 51°13.712 2°55.718 83 2.1 271.1 10.6
2001-08-21 06:45:03 51°13.712 2°55.716 81.2 1.7 273.4 10.6
2001-08-21 06:45:07 51°13.712 2°55.715 77.7 1 284.1 10.7
2001-08-21 06:45:13 51°13.713 2°55.715 71.8 0.6 332.7 10.6
2001-08-21 06:45:17 51°13.714 2°55.717 65.2 0.9 19.6 10.4
2001-08-21 06:45:23 51°13.717 2°55.72 57 1.6 34.9 10.1
2001-08-21 06:45:29 51°13.721 2°55.724 47.7 2.5 34.2 9.9
2001-08-21 06:45:33 51°13.725 2°55.727 38.3 3.2 30.1 9.3
2001-08-21 06:45:39 51°13.73 2°55.729 30.3 3.3 24.1 9.1
2001-08-21 06:45:43 51°13.733 2°55.731 26.5 3.1 20.3 9.2
2001-08-21 06:45:49 51°13.736 2°55.732 24 2.6 17.1 8.7
2001-08-21 06:45:53 51°13.737 2°55.733 20.5 1.9 14.7 8
2001-08-21 06:45:59 51°13.738 2°55.733 17.3 1.2 11.9 -999
2001-08-21 06:46:03 51°13.738 2°55.733 15.2 0.2 8.8 8.4
2001-08-21 06:46:09 51°13.736 2°55.732 14 0.6 190.5 8.4
2001-08-21 06:46:13 51°13.734 2°55.732 13.8 1.3 190 6.2
2001-08-21 06:46:19 51°13.731 2°55.731 14.2 1.8 190.6 -999
2001-08-21 06:46:24 51°13.728 2°55.73 15.2 1.9 191.6 -999
2001-08-21 06:46:29 51°13.726 2°55.729 16.2 1.8 193.9 -999
2001-08-21 06:46:34 51°13.725 2°55.728 16.3 1.4 197.8 -999
2001-08-21 06:46:39 51°13.726 2°55.728 13 0.4 223 -999
2001-08-21 06:46:43 51°13.727 2°55.727 7.5 0.8 339.9 -999
2001-08-21 06:46:49 51°13.731 2°55.726 359.7 1.7 348.3 -999
2001-08-21 06:46:53 51°13.734 2°55.725 352.5 2.6 347.3 -999
2001-08-21 06:46:59 51°13.74 2°55.722 347.7 3.5 344 -999
2001-08-21 06:47:03 51°13.745 2°55.719 346 4.2 341.7 -999
2001-08-21 06:47:09 51°13.753 2°55.713 342.8 4.8 339.4 9.5
2001-08-21 06:47:13 51°13.758 2°55.708 337.2 5.4 334.2 9.6
2001-08-21 06:47:19 51°13.766 2°55.701 332.7 5.3 329.1 9.8
2001-08-21 06:47:23 51°13.771 2°55.696 331.2 5.2 327.8 9.8
2001-08-21 06:47:29 51°13.778 2°55.689 331.5 5 327.8 9.6
2001-08-21 06:47:33 51°13.782 2°55.684 331.5 5 327.7 9.8
2001-08-21 06:47:39 51°13.789 2°55.678 331.3 4.9 327.8 9.1
2001-08-21 06:47:43 51°13.794 2°55.673 331.5 4.9 327.9 9.4
2001-08-21 06:47:49 51°13.801 2°55.666 331.8 4.9 328 9.8
2001-08-21 06:47:53 51°13.805 2°55.662 332.5 4.9 328.8 9.8
2001-08-21 06:47:59 51°13.812 2°55.656 333.2 4.8 329.7 9.8
2001-08-21 06:48:03 51°13.817 2°55.652 334.2 4.8 330.2 9.9
2001-08-21 06:48:09 51°13.824 2°55.646 335 4.7 331 9.7
2001-08-21 06:48:13 51°13.828 2°55.642 335.8 4.7 331.5 9.3
2001-08-21 06:48:19 51°13.835 2°55.636 336.7 4.7 332.3 9.2
2001-08-21 06:48:23 51°13.84 2°55.632 337.3 4.7 333.1 9.8
2001-08-21 06:48:29 51°13.847 2°55.627 337.7 4.8 333.9 9.8
2001-08-21 06:48:33 51°13.852 2°55.623 338.3 4.8 334.1 9.8
2001-08-21 06:48:39 51°13.859 2°55.617 338.7 4.9 334.5 9
2001-08-21 06:48:43 51°13.864 2°55.614 339 4.9 334.8 9
2001-08-21 06:48:49 51°13.872 2°55.608 339 4.9 334.9 8.9
2001-08-21 06:48:53 51°13.877 2°55.605 339.2 5 334.9 8.6
2001-08-21 06:48:59 51°13.884 2°55.599 339.5 5 335.3 8.7
2001-08-21 06:49:03 51°13.89 2°55.595 339.7 5.1 335.7 9.1
2001-08-21 06:49:08 51°13.896 2°55.591 340 5.1 335.9 9
2001-08-21 06:49:12 51°13.901 2°55.587 340.2 5.1 336 9.1
2001-08-21 06:49:17 51°13.908 2°55.583 340.3 5.1 336.1 9.2
2001-08-21 06:49:23 51°13.916 2°55.577 340.2 5.2 336.2 9.2
2001-08-21 06:49:27 51°13.921 2°55.573 340.2 5.2 335.9 9.2
2001-08-21 06:49:33 51°13.929 2°55.568 340.2 5.2 336.1 9.2
2001-08-21 06:49:36 51°13.933 2°55.565 340.3 5.2 336 9.2
2001-08-21 06:49:43 51°13.942 2°55.558 340.5 5.2 336.4 9.2
2001-08-21 06:49:47 51°13.947 2°55.555 340.7 5.2 336.7 9.2
2001-08-21 06:49:53 51°13.956 2°55.549 341 5.2 337.1 9.2
2001-08-21 06:49:59 51°13.964 2°55.544 341.2 5.3 337.2 9.2
2001-08-21 06:50:03 51°13.969 2°55.54 341 5.3 337.1 9.3
2001-08-21 06:50:07 51°13.974 2°55.536 340.8 5.3 337 9.2
2001-08-21 06:50:13 51°13.983 2°55.531 340.8 5.3 336.8 9.1
2001-08-21 06:50:19 51°13.991 2°55.525 340.8 5.3 336.8 9.3
2001-08-21 06:50:23 51°13.996 2°55.521 340.8 5.3 336.7 9.3
2001-08-21 06:50:29 51°14.004 2°55.516 340.7 5.3 336.8 9.3
2001-08-21 06:50:33 51°14.009 2°55.512 340.7 5.2 336.5 9.2
2001-08-21 06:50:39 51°14.017 2°55.507 340.7 5.2 336.5 9.2
2001-08-21 06:50:43 51°14.022 2°55.503 340.5 5.2 336.4 9.1
2001-08-21 06:50:49 51°14.031 2°55.497 340.2 5.2 336.4 9.2
2001-08-21 06:50:53 51°14.036 2°55.493 340.2 5.2 336 9.2
2001-08-21 06:50:57 51°14.041 2°55.49 340 5.2 335.8 9.2
2001-08-21 06:51:03 51°14.049 2°55.484 339.7 5.3 335.3 9.2
2001-08-21 06:51:09 51°14.057 2°55.478 339.5 5.3 335.2 9.2
2001-08-21 06:51:13 51°14.063 2°55.473 339.2 5.4 334.7 9.1
2001-08-21 06:51:19 51°14.071 2°55.467 339.2 5.5 334.7 9.1
2001-08-21 06:51:23 51°14.077 2°55.463 339.2 5.6 334.6 9.1
2001-08-21 06:51:29 51°14.085 2°55.456 338.8 5.7 334.4 9.1
2001-08-21 06:51:33 51°14.091 2°55.452 338.7 5.8 334.3 9.1
2001-08-21 06:51:37 51°14.097 2°55.447 338.5 5.9 334.1 9.1
2001-08-21 06:51:43 51°14.106 2°55.44 338.3 5.9 333.9 9.1
2001-08-21 06:51:49 51°14.115 2°55.433 338 5.9 333.8 9
2001-08-21 06:51:53 51°14.121 2°55.428 337.7 6 333.4 9.1
2001-08-21 06:51:59 51°14.13 2°55.421 337.5 6 333.2 9.1
2001-08-21 06:52:03 51°14.136 2°55.416 337.3 6 332.9 9.1
2001-08-21 06:52:07 51°14.142 2°55.412 337 6.1 332.7 9
2001-08-21 06:52:13 51°14.151 2°55.404 336.2 6.1 332.1 9
2001-08-21 06:52:19 51°14.16 2°55.395 335 6.2 331 9
2001-08-21 06:52:23 51°14.166 2°55.39 333.5 6.2 329.6 9
2001-08-21 06:52:29 51°14.174 2°55.381 332 6.2 328.2 9.1
2001-08-21 06:52:33 51°14.18 2°55.374 330.3 6.3 326.6 8.9
2001-08-21 06:52:39 51°14.189 2°55.364 328.7 6.4 325.5 9.1
2001-08-21 06:52:43 51°14.195 2°55.357 327.3 6.6 324.1 9.1
2001-08-21 06:52:49 51°14.204 2°55.346 326.5 6.8 323 9.2
2001-08-21 06:52:53 51°14.211 2°55.338 325.5 6.9 322.2 8.9
2001-08-21 06:52:59 51°14.22 2°55.326 324.5 7.1 321 9.2
2001-08-21 06:53:03 51°14.226 2°55.318 323.5 7.2 320 9.2
2001-08-21 06:53:09 51°14.235 2°55.305 322.7 7.2 319.3 9.2
2001-08-21 06:53:13 51°14.241 2°55.296 321.8 7.4 318.1 9.2
2001-08-21 06:53:19 51°14.25 2°55.282 320.8 7.4 317.6 9.2
2001-08-21 06:53:23 51°14.256 2°55.273 319.8 7.6 315.8 9.1
2001-08-21 06:53:29 51°14.266 2°55.258 318.8 7.7 314.8 9.1
2001-08-21 06:53:33 51°14.272 2°55.247 318.2 7.9 314.1 9.1
2001-08-21 06:53:39 51°14.282 2°55.231 317.3 8 313.4 9.1
2001-08-21 06:53:43 51°14.288 2°55.22 316.7 8.2 312.7 9.1
2001-08-21 06:53:49 51°14.297 2°55.203 316.2 8.3 312 9.1
2001-08-21 06:53:53 51°14.304 2°55.192 315.3 8.5 311.1 9
2001-08-21 06:53:59 51°14.313 2°55.174 314.8 8.6 310.8 9
2001-08-21 06:54:03 51°14.32 2°55.162 314.5 8.8 310.2 9
2001-08-21 06:54:09 51°14.329 2°55.144 314.2 8.9 309.9 9
2001-08-21 06:54:13 51°14.335 2°55.132 314.2 8.9 309.5 9
2001-08-21 06:54:19 51°14.345 2°55.113 314 9 309.3 8.9
2001-08-21 06:54:23 51°14.352 2°55.101 313.8 9.1 309.4 9
2001-08-21 06:54:27 51°14.358 2°55.088 313.5 9.1 309.3 9.1
2001-08-21 06:54:33 51°14.368 2°55.068 313.2 9.2 308.7 9.2
2001-08-21 06:54:37 51°14.374 2°55.055 312.3 9.3 308 9.3
2001-08-21 06:54:43 51°14.383 2°55.034 310 9.4 305.3 9.3
2001-08-21 06:54:47 51°14.388 2°55.019 305.3 9.5 302.3 9.4
2001-08-21 06:54:53 51°14.395 2°54.996 300 9.7 298.3 9.4
2001-08-21 06:54:59 51°14.4 2°54.971 294.3 9.8 292 9.4
2001-08-21 06:55:03 51°14.403 2°54.954 290.5 10 286.8 9.4
2001-08-21 06:55:07 51°14.405 2°54.936 288.5 10.1 284.6 9.4
2001-08-21 06:55:13 51°14.409 2°54.909 286.3 10.4 281.8 9.5
2001-08-21 06:55:19 51°14.411 2°54.881 283.5 10.6 279.9 9.4
2001-08-21 06:55:23 51°14.412 2°54.861 281.2 10.9 276.4 9.3
2001-08-21 06:55:29 51°14.413 2°54.832 279.7 11 274.8 9.3
2001-08-21 06:55:33 51°14.414 2°54.812 279.2 11.3 273.4 9.2
2001-08-21 06:55:37 51°14.414 2°54.791 279 11.4 272.8 9.2
2001-08-21 06:55:43 51°14.415 2°54.761 279.2 11.6 272.8 9.2
2001-08-21 06:55:49 51°14.416 2°54.729 279.7 11.7 273.1 9.3
2001-08-21 06:55:53 51°14.418 2°54.708 280 11.9 273.8 9.3
2001-08-21 06:55:59 51°14.419 2°54.675 280.3 12.2 274.2 9.2
2001-08-21 06:56:03 51°14.42 2°54.653 280.5 12.4 274.3 9.3
2001-08-21 06:56:09 51°14.422 2°54.62 280.7 12.5 274.4 9.2
2001-08-21 06:56:13 51°14.423 2°54.597 280.8 12.7 274.4 9.2
2001-08-21 06:56:19 51°14.424 2°54.563 280.5 12.9 274.1 9.3
2001-08-21 06:56:23 51°14.425 2°54.539 279 13.2 272.9 9.4
2001-08-21 06:56:29 51°14.424 2°54.503 276.7 13.4 271.4 9.4
2001-08-21 06:56:33 51°14.423 2°54.479 273.7 13.6 268.3 9.2
2001-08-21 06:56:39 51°14.421 2°54.442 270.3 13.8 265.5 8.9
2001-08-21 06:56:43 51°14.418 2°54.418 267.2 13.9 262.5 8.7
2001-08-21 06:56:47 51°14.415 2°54.394 264.2 13.9 260.4 8.7
2001-08-21 06:56:53 51°14.41 2°54.358 262.3 14 258 8.3
2001-08-21 06:56:59 51°14.404 2°54.322 260 14 256.4 8.5
2001-08-21 06:57:03 51°14.4 2°54.298 258.5 14 254.8 8.4
2001-08-21 06:57:09 51°14.393 2°54.263 257.2 14 253.7 8.3
2001-08-21 06:57:13 51°14.387 2°54.239 254.7 14.1 251.2 8.2
2001-08-21 06:57:19 51°14.378 2°54.205 251.7 14.1 249.3 8.2
2001-08-21 06:57:23 51°14.372 2°54.182 249.5 14.1 246.9 8.1
2001-08-21 06:57:27 51°14.365 2°54.16 248 14.1 245.5 8.3
2001-08-21 06:57:33 51°14.355 2°54.126 246.8 14.2 244.2 8
2001-08-21 06:57:39 51°14.344 2°54.092 245.8 14.2 243.6 8.2
2001-08-21 06:57:43 51°14.337 2°54.07 245.7 14.2 243.2 8.1
2001-08-21 06:57:49 51°14.326 2°54.036 245.5 14.2 243 7.7
2001-08-21 06:57:53 51°14.319 2°54.014 245.7 14.2 242.9 8
2001-08-21 06:57:59 51°14.308 2°53.981 245.7 14.2 243 7.8
2001-08-21 06:58:03 51°14.301 2°53.958 245.7 14.2 243 -999
2001-08-21 06:58:07 51°14.294 2°53.936 246.2 14.2 243.1 8
2001-08-21 06:58:13 51°14.284 2°53.902 247 14.2 244 8
2001-08-21 06:58:19 51°14.274 2°53.868 248.2 14.2 244.9 7.8
2001-08-21 06:58:23 51°14.268 2°53.845 248.5 14.2 245.3 8
2001-08-21 06:58:29 51°14.258 2°53.811 248.5 14.2 245.3 8.1
2001-08-21 06:58:33 51°14.251 2°53.788 248.3 14.2 245.1 7.9
2001-08-21 06:58:37 51°14.244 2°53.765 247.7 14.2 244.7 7.9
2001-08-21 06:58:43 51°14.234 2°53.731 247 14.2 244.1 8.2
2001-08-21 06:58:49 51°14.223 2°53.698 246.5 14.2 243.4 8.2
2001-08-21 06:58:53 51°14.216 2°53.675 246.3 14.3 243.3 7.8
2001-08-21 06:58:59 51°14.205 2°53.642 244.8 14.3 242.4 8.2
2001-08-21 06:59:03 51°14.197 2°53.619 245.2 14.3 241.9 8.1
2001-08-21 06:59:09 51°14.185 2°53.586 243.7 14.3 241.2 8.3
2001-08-21 06:59:13 51°14.177 2°53.565 242.3 14.3 239.8 8.2
2001-08-21 06:59:19 51°14.164 2°53.532 241.2 14.3 239 8.2
2001-08-21 06:59:23 51°14.156 2°53.511 240.5 14.3 238 8.3
2001-08-21 06:59:29 51°14.142 2°53.479 239.2 14.4 237.1 8.3
2001-08-21 06:59:33 51°14.134 2°53.457 239 14.4 236.8 8.3
2001-08-21 06:59:39 51°14.121 2°53.426 238.7 14.4 236.5 8.2
2001-08-21 06:59:43 51°14.112 2°53.404 239.2 14.4 236.9 8.3
2001-08-21 06:59:47 51°14.103 2°53.383 239.8 14.4 237.1 8.3
2001-08-21 06:59:53 51°14.091 2°53.35 241.3 14.4 238.5 8.3
2001-08-21 06:59:59 51°14.079 2°53.317 242.8 14.4 239 8.3
2001-08-21 07:00:03 51°14.072 2°53.294 244.5 14.4 241 8.4
2001-08-21 07:00:09 51°14.061 2°53.261 245.5 14.4 242.1 8.4
2001-08-21 07:00:13 51°14.053 2°53.238 245.8 14.5 242.2 8.5
2001-08-21 07:00:19 51°14.042 2°53.204 245.5 14.5 242.1 8.5
2001-08-21 07:00:23 51°14.034 2°53.181 244.2 14.6 241.3 8.5
2001-08-21 07:00:29 51°14.022 2°53.148 244.5 14.6 241.2 8.6
2001-08-21 07:00:33 51°14.015 2°53.125 244.8 14.6 241.5 8.6
2001-08-21 07:00:39 51°14.003 2°53.091 244.8 14.6 241.7 8.6
2001-08-21 07:00:43 51°13.996 2°53.068 246 14.6 242.2 8.7
2001-08-21 07:00:47 51°13.988 2°53.045 245.2 14.7 242.1 8.7
2001-08-21 07:00:53 51°13.976 2°53.011 244.3 14.7 241.1 8.8
2001-08-21 07:00:59 51°13.963 2°52.977 243.7 14.7 240.8 8.8
2001-08-21 07:01:03 51°13.956 2°52.954 243.3 14.7 240.3 8.9
2001-08-21 07:01:07 51°13.947 2°52.932 243.3 14.7 240.3 8.9
2001-08-21 07:01:13 51°13.935 2°52.898 243.2 14.7 240.2 8.9
2001-08-21 07:01:19 51°13.923 2°52.864 242.7 14.8 239.9 8.9
2001-08-21 07:01:23 51°13.914 2°52.841 242.2 14.8 239.5 9
2001-08-21 07:01:27 51°13.906 2°52.818 242.5 14.8 239.6 9
2001-08-21 07:01:33 51°13.894 2°52.784 243.2 14.8 240.2 9
2001-08-21 07:01:39 51°13.882 2°52.75 243.7 14.8 240.6 9
2001-08-21 07:01:43 51°13.874 2°52.727 244 14.8 240.9 9
2001-08-21 07:01:49 51°13.862 2°52.693 244.8 14.8 241.8 9
2001-08-21 07:01:53 51°13.855 2°52.669 246.2 14.8 242.5 9
2001-08-21 07:01:59 51°13.844 2°52.634 246.3 14.8 243 9.1
2001-08-21 07:02:03 51°13.836 2°52.611 246.7 14.8 243.3 9.1
2001-08-21 07:02:07 51°13.829 2°52.587 247.7 14.9 243.4 9.1
2001-08-21 07:02:13 51°13.818 2°52.552 246.2 14.9 243.1 9.1
2001-08-21 07:02:19 51°13.806 2°52.517 245 14.9 241.9 9.1
2001-08-21 07:02:23 51°13.797 2°52.495 243.7 14.9 240.6 9
2001-08-21 07:02:29 51°13.785 2°52.461 242.5 14.9 239.8 9.1
2001-08-21 07:02:33 51°13.776 2°52.439 241.3 14.9 238.7 9.1
2001-08-21 07:02:39 51°13.763 2°52.405 241 14.9 238.2 9.1
2001-08-21 07:02:43 51°13.754 2°52.383 239.8 14.9 237.3 9.1
2001-08-21 07:02:49 51°13.74 2°52.35 238.8 14.9 236.5 9.2
2001-08-21 07:02:53 51°13.73 2°52.329 237.8 14.9 235.6 9.1
2001-08-21 07:02:59 51°13.717 2°52.296 238.8 14.8 236.3 9.1
2001-08-21 07:03:03 51°13.708 2°52.274 239.5 14.8 236.6 9.2
2001-08-21 07:03:09 51°13.695 2°52.24 240.5 14.8 237.4 9.2
2001-08-21 07:03:13 51°13.686 2°52.218 240.3 14.8 237.7 9.2
2001-08-21 07:03:19 51°13.673 2°52.185 240.8 14.8 238.1 9.2
2001-08-21 07:03:23 51°13.664 2°52.163 240.7 14.8 238 9.2
2001-08-21 07:03:29 51°13.651 2°52.129 240.8 14.8 238.1 9.1
2001-08-21 07:03:33 51°13.643 2°52.107 241.3 14.8 238.6 9.2
2001-08-21 07:03:39 51°13.63 2°52.073 242 14.8 239.1 9
2001-08-21 07:03:43 51°13.622 2°52.051 242.2 14.8 239.3 9.1
2001-08-21 07:03:49 51°13.609 2°52.017 242.5 14.8 239.5 9.2
2001-08-21 07:03:53 51°13.601 2°51.995 242.3 14.8 239.5 9.2
2001-08-21 07:03:57 51°13.593 2°51.972 242.7 14.8 239.8 9.1
2001-08-21 07:04:03 51°13.581 2°51.938 243.5 14.8 240.1 9.1
2001-08-21 07:04:09 51°13.569 2°51.904 243 14.8 240.3 9.1
2001-08-21 07:04:13 51°13.56 2°51.881 243.2 14.8 240.3 9.1
2001-08-21 07:04:19 51°13.548 2°51.847 243.7 14.8 240.5 9.1
2001-08-21 07:04:23 51°13.541 2°51.825 243.3 14.8 240.6 9.1
2001-08-21 07:04:29 51°13.529 2°51.79 243.5 14.8 240.6 9.1
2001-08-21 07:04:33 51°13.521 2°51.768 244 14.8 241 9.1
2001-08-21 07:04:39 51°13.509 2°51.733 244.7 14.7 241.6 9.1
2001-08-21 07:04:43 51°13.502 2°51.71 245.2 14.8 242 9.2
2001-08-21 07:04:49 51°13.49 2°51.675 245.7 14.8 242.3 9.2
2001-08-21 07:04:53 51°13.482 2°51.652 245.2 14.8 242.3 9.2
2001-08-21 07:04:57 51°13.475 2°51.629 245.3 14.8 242 9.2
2001-08-21 07:05:03 51°13.463 2°51.594 245 14.8 242 9.3
2001-08-21 07:05:09 51°13.452 2°51.56 244.5 14.8 241.6 9.3
2001-08-21 07:05:13 51°13.444 2°51.537 244.7 14.8 241.6 9.3
2001-08-21 07:05:19 51°13.432 2°51.502 244.2 14.8 241.3 9.3
2001-08-21 07:05:23 51°13.424 2°51.479 244.2 14.8 241.2 9.3
2001-08-21 07:05:29 51°13.412 2°51.445 244 14.9 241.1 9.3
2001-08-21 07:05:33 51°13.404 2°51.422 243.7 14.8 240.8 9.4
2001-08-21 07:05:37 51°13.396 2°51.399 243.5 14.8 240.8 9.3
2001-08-21 07:05:43 51°13.384 2°51.365 243.3 14.8 240.7 9.4
2001-08-21 07:05:49 51°13.372 2°51.331 243.5 14.8 240.7 9.4
2001-08-21 07:05:53 51°13.363 2°51.308 243.5 14.8 240.7 9.3
2001-08-21 07:05:59 51°13.351 2°51.274 243.2 14.8 240.4 9.4
2001-08-21 07:06:03 51°13.343 2°51.251 243.2 14.8 240.4 9.4
2001-08-21 07:06:09 51°13.331 2°51.217 243.5 14.8 240.5 9.4
2001-08-21 07:06:13 51°13.323 2°51.194 243.7 14.8 240.9 9.4
2001-08-21 07:06:19 51°13.312 2°51.159 244.5 14.8 241.4 9.4
2001-08-21 07:06:23 51°13.304 2°51.136 245.5 14.8 242.4 9.5
2001-08-21 07:06:29 51°13.293 2°51.101 246.5 14.8 243.6 9.5
2001-08-21 07:06:33 51°13.286 2°51.077 247.8 14.8 244.1 9.5
2001-08-21 07:06:39 51°13.275 2°51.042 248.2 14.8 244.3 9.5
2001-08-21 07:06:43 51°13.268 2°51.019 246.2 14.8 243.2 9.6
2001-08-21 07:06:49 51°13.257 2°50.983 245.8 14.8 242.8 9.6
2001-08-21 07:06:53 51°13.249 2°50.96 245.8 14.9 242.5 9.6
2001-08-21 07:06:59 51°13.237 2°50.925 245.5 14.9 242.4 9.6
2001-08-21 07:07:03 51°13.23 2°50.902 245.2 14.9 242.2 9.6
2001-08-21 07:07:09 51°13.218 2°50.867 245.2 14.9 242.1 9.6
2001-08-21 07:07:13 51°13.21 2°50.844 245.2 14.9 242.1 9.6
2001-08-21 07:07:19 51°13.199 2°50.809 245.3 14.9 242.1 9.6
2001-08-21 07:07:23 51°13.191 2°50.786 245.8 14.9 242.5 9.6
2001-08-21 07:07:27 51°13.183 2°50.762 245.7 14.9 242.5 9.6
2001-08-21 07:07:33 51°13.172 2°50.727 246.2 14.9 242.7 9.6
2001-08-21 07:07:39 51°13.161 2°50.692 245.7 14.9 242.6 9.6
2001-08-21 07:07:43 51°13.153 2°50.669 246.2 14.9 242.9 9.7
2001-08-21 07:07:47 51°13.145 2°50.646 246.5 14.9 243.1 9.6
2001-08-21 07:07:53 51°13.135 2°50.61 247.2 14.9 243.8 9.6
2001-08-21 07:07:59 51°13.124 2°50.574 248 14.9 244.1 9.6
2001-08-21 07:08:03 51°13.117 2°50.551 248.2 14.9 244.6 9.7
2001-08-21 07:08:09 51°13.106 2°50.515 248 14.9 244.5 9.7
2001-08-21 07:08:13 51°13.099 2°50.491 247.3 14.9 244.1 9.7
2001-08-21 07:08:19 51°13.088 2°50.456 247 14.9 243.7 9.7
2001-08-21 07:08:23 51°13.08 2°50.432 246.8 14.9 243.5 9.7
2001-08-21 07:08:27 51°13.073 2°50.408 247 14.9 243.6 9.7
2001-08-21 07:08:33 51°13.062 2°50.373 246.7 14.9 243.4 9.7
2001-08-21 07:08:39 51°13.051 2°50.338 246 14.9 243 9.7
2001-08-21 07:08:43 51°13.043 2°50.315 245.5 14.9 242.3 9.7
2001-08-21 07:08:49 51°13.031 2°50.28 245.2 14.9 242.1 9.8
2001-08-21 07:08:53 51°13.023 2°50.257 244.8 14.9 241.7 9.8
2001-08-21 07:08:59 51°13.011 2°50.222 244.2 14.9 241.5 9.9
2001-08-21 07:09:03 51°13.003 2°50.199 244.2 15 241.2 9.8
2001-08-21 07:09:09 51°12.991 2°50.164 244 15 241 9.9
2001-08-21 07:09:13 51°12.983 2°50.141 243.7 14.9 240.9 9.9
2001-08-21 07:09:19 51°12.971 2°50.106 243.7 14.9 241 9.9
2001-08-21 07:09:23 51°12.963 2°50.083 244.3 14.9 241.1 9.9
2001-08-21 07:09:29 51°12.951 2°50.049 244.2 14.9 241.3 9.9
2001-08-21 07:09:33 51°12.943 2°50.025 244.3 14.9 241.4 9.9
2001-08-21 07:09:37 51°12.936 2°50.002 244.8 15 241.7 9.9
2001-08-21 07:09:43 51°12.924 2°49.967 245.3 14.9 242.1 9.9
2001-08-21 07:09:49 51°12.913 2°49.932 245.5 14.9 242.3 9.9
2001-08-21 07:09:53 51°12.905 2°49.908 245.5 14.9 242.3 9.9
2001-08-21 07:09:59 51°12.893 2°49.874 245.3 15 242.2 10
2001-08-21 07:10:03 51°12.885 2°49.85 244.7 15 241.7 10
2001-08-21 07:10:09 51°12.873 2°49.816 244 15 241.2 10
2001-08-21 07:10:13 51°12.864 2°49.793 242.7 15 240 10
2001-08-21 07:10:19 51°12.852 2°49.759 242.2 15 239.7 10
2001-08-21 07:10:23 51°12.844 2°49.736 242.3 14.9 239.7 10.1
2001-08-21 07:10:29 51°12.831 2°49.701 243 14.9 240.1 10.1
2001-08-21 07:10:33 51°12.823 2°49.678 243 14.9 240.4 10.1
2001-08-21 07:10:39 51°12.811 2°49.644 244 14.9 240.7 10.1
2001-08-21 07:10:43 51°12.803 2°49.621 244 15 240.9 10.1
2001-08-21 07:10:49 51°12.791 2°49.586 243 14.9 240.5 10.1
2001-08-21 07:10:53 51°12.783 2°49.563 242.5 14.9 240.1 10.1
2001-08-21 07:10:57 51°12.774 2°49.541 242.5 14.9 239.9 10.1
2001-08-21 07:11:03 51°12.762 2°49.506 242.7 14.9 240 10.2
2001-08-21 07:11:09 51°12.75 2°49.472 243 14.9 240.2 10.1
2001-08-21 07:11:13 51°12.742 2°49.449 243.3 14.9 240.7 10.1
2001-08-21 07:11:19 51°12.73 2°49.414 244.3 14.9 241.2 10.1
2001-08-21 07:11:23 51°12.722 2°49.391 244.8 14.9 241.8 10.1
2001-08-21 07:11:29 51°12.711 2°49.355 245.5 15 242.3 10.1
2001-08-21 07:11:33 51°12.703 2°49.332 245.3 15 242.5 10.2
2001-08-21 07:11:39 51°12.691 2°49.297 245.5 15 242.4 10.2
2001-08-21 07:11:43 51°12.684 2°49.273 245.5 14.9 242.3 10.2
2001-08-21 07:11:49 51°12.672 2°49.239 244.7 15 241.7 10.2
2001-08-21 07:11:53 51°12.663 2°49.216 243.2 15 240.8 10.2
2001-08-21 07:11:57 51°12.655 2°49.193 242.3 15 239.9 10.3
2001-08-21 07:12:03 51°12.642 2°49.159 241.3 14.9 239 10.3
2001-08-21 07:12:07 51°12.633 2°49.137 240.5 14.9 238.4 10.3
2001-08-21 07:12:13 51°12.62 2°49.103 240.7 14.9 238.3 10.3
2001-08-21 07:12:19 51°12.608 2°49.069 241.3 14.9 239 10.3
2001-08-21 07:12:23 51°12.599 2°49.047 242 14.9 239.5 10.3
2001-08-21 07:12:29 51°12.588 2°49.012 243.2 14.9 240.5 10.3
2001-08-21 07:12:33 51°12.58 2°48.989 244.3 14.9 241.3 10.3
2001-08-21 07:12:39 51°12.568 2°48.954 245 14.9 242 10.3
2001-08-21 07:12:43 51°12.561 2°48.93 245.8 14.9 242.8 10.3
2001-08-21 07:12:49 51°12.55 2°48.895 246.5 14.8 243.6 10.4
2001-08-21 07:12:53 51°12.543 2°48.872 247.3 14.9 243.9 10.4
2001-08-21 07:12:59 51°12.532 2°48.836 246.7 14.9 243.9 10.4
2001-08-21 07:13:03 51°12.524 2°48.813 246 14.9 243.2 10.4
2001-08-21 07:13:09 51°12.513 2°48.778 246 14.9 242.9 10.4
2001-08-21 07:13:13 51°12.505 2°48.755 245 14.9 242.4 10.4
2001-08-21 07:13:19 51°12.493 2°48.72 244.7 14.9 242.1 10.4
2001-08-21 07:13:23 51°12.485 2°48.697 244.7 14.9 241.9 10.5
2001-08-21 07:13:29 51°12.474 2°48.662 245 14.9 242 10.5
2001-08-21 07:13:33 51°12.466 2°48.639 244.8 14.9 242 10.5
2001-08-21 07:13:39 51°12.454 2°48.604 244.8 14.9 242 10.5
2001-08-21 07:13:43 51°12.447 2°48.581 244.8 14.9 242 10.4
2001-08-21 07:13:49 51°12.436 2°48.546 245.8 14.9 242.9 10.4
2001-08-21 07:13:53 51°12.429 2°48.522 246.5 14.9 243.2 10.5
2001-08-21 07:13:59 51°12.418 2°48.487 246.7 14.8 243.7 10.4
2001-08-21 07:14:03 51°12.411 2°48.464 246.7 14.8 243.6 10.3
2001-08-21 07:14:09 51°12.4 2°48.429 246.5 14.8 243.7 10.5
2001-08-21 07:14:13 51°12.392 2°48.406 246.3 14.9 243.4 10.6
2001-08-21 07:14:17 51°12.385 2°48.382 246.2 14.9 243.3 10.5
2001-08-21 07:14:23 51°12.374 2°48.347 246.2 14.8 243.3 10.6
2001-08-21 07:14:29 51°12.364 2°48.312 246.8 14.8 243.8 10.6
2001-08-21 07:14:33 51°12.356 2°48.287 247.3 14.9 244.4 10.6
2001-08-21 07:14:39 51°12.345 2°48.251 248.2 14.9 245.1 10.6
2001-08-21 07:14:43 51°12.339 2°48.227 248.7 14.9 245.5 10.7
2001-08-21 07:14:47 51°12.332 2°48.203 249.5 14.9 245.8 10.6
2001-08-21 07:14:53 51°12.321 2°48.167 248.7 14.9 245.6 10.7
2001-08-21 07:14:59 51°12.311 2°48.131 248.2 14.9 245.1 10.7
2001-08-21 07:15:03 51°12.304 2°48.108 247.8 14.9 245.1 10.8
2001-08-21 07:15:09 51°12.293 2°48.072 247 14.9 244.3 10.7
2001-08-21 07:15:13 51°12.286 2°48.048 246.8 14.9 244.1 10.8
2001-08-21 07:15:17 51°12.278 2°48.025 246.8 14.9 244 10.8
2001-08-21 07:15:23 51°12.267 2°47.989 247.2 14.8 244.2 10.8
2001-08-21 07:15:29 51°12.256 2°47.954 247.3 14.8 244.5 10.8
2001-08-21 07:15:33 51°12.249 2°47.93 248 14.8 244.9 10.8
2001-08-21 07:15:39 51°12.239 2°47.894 248.3 14.8 245.3 10.8
2001-08-21 07:15:43 51°12.233 2°47.87 249.2 14.8 246 10.8
2001-08-21 07:15:49 51°12.223 2°47.834 249.8 14.8 246.5 10.8
2001-08-21 07:15:53 51°12.217 2°47.81 251 14.8 247.4 10.9
2001-08-21 07:15:59 51°12.208 2°47.773 251.5 14.8 247.6 10.9
2001-08-21 07:16:03 51°12.201 2°47.749 250 14.9 246.9 10.8
2001-08-21 07:16:07 51°12.194 2°47.726 247.5 14.9 245.4 10.8
2001-08-21 07:16:13 51°12.183 2°47.691 246.7 14.9 244.2 10.8
2001-08-21 07:16:19 51°12.171 2°47.655 246 14.8 243.4 10.8
2001-08-21 07:16:23 51°12.164 2°47.632 245.7 14.8 243.1 10.8
2001-08-21 07:16:27 51°12.157 2°47.609 245.5 14.8 243 10.9
2001-08-21 07:16:33 51°12.145 2°47.574 245.7 14.8 242.9 10.9
2001-08-21 07:16:39 51°12.134 2°47.539 245.5 14.9 242.9 10.9
2001-08-21 07:16:43 51°12.127 2°47.516 245.7 14.9 242.9 11
2001-08-21 07:16:49 51°12.116 2°47.48 245.7 14.9 243.1 10.9
2001-08-21 07:16:53 51°12.108 2°47.457 246.2 14.9 243.3 11
2001-08-21 07:16:59 51°12.097 2°47.421 246.3 14.9 243.4 10.9
2001-08-21 07:17:03 51°12.09 2°47.398 246.2 14.9 243.6 11
2001-08-21 07:17:07 51°12.083 2°47.375 246.7 14.9 243.7 11
2001-08-21 07:17:13 51°12.072 2°47.339 246.7 14.9 243.9 11
2001-08-21 07:17:17 51°12.065 2°47.315 247.3 14.9 244.4 11
2001-08-21 07:17:23 51°12.054 2°47.28 248.2 14.8 245.1 11
2001-08-21 07:17:29 51°12.045 2°47.243 249 14.8 246.2 11
2001-08-21 07:17:33 51°12.038 2°47.219 250.3 14.9 246.8 11.1
2001-08-21 07:17:39 51°12.029 2°47.183 250.8 14.9 247.4 11
2001-08-21 07:17:43 51°12.023 2°47.158 251.3 14.9 247.9 11.1
2001-08-21 07:17:49 51°12.014 2°47.122 251.8 14.9 248.1 11
2001-08-21 07:17:53 51°12.008 2°47.097 251 14.9 247.9 11
2001-08-21 07:17:59 51°11.998 2°47.061 250.3 14.9 247.4 11
2001-08-21 07:18:03 51°11.991 2°47.037 250 14.9 247 11.1
2001-08-21 07:18:09 51°11.982 2°47.001 249.7 14.9 246.8 11.1
2001-08-21 07:18:13 51°11.975 2°46.976 249.7 14.9 246.6 11.1
2001-08-21 07:18:19 51°11.966 2°46.94 250 14.9 246.8 10.9
2001-08-21 07:18:23 51°11.959 2°46.916 250.5 14.9 247.3 11.1
2001-08-21 07:18:29 51°11.95 2°46.879 251 14.9 247.6 11
2001-08-21 07:18:33 51°11.944 2°46.855 250.7 14.9 247.5 11.1
2001-08-21 07:18:39 51°11.934 2°46.818 250.8 14.9 247.5 11.1
2001-08-21 07:18:43 51°11.927 2°46.794 249.8 14.9 246.7 11
2001-08-21 07:18:49 51°11.918 2°46.758 249.3 14.9 246.6 11.1
2001-08-21 07:18:53 51°11.911 2°46.734 248.7 14.9 245.8 11
2001-08-21 07:18:59 51°11.901 2°46.698 249 14.9 245.9 11.1
2001-08-21 07:19:03 51°11.894 2°46.674 248.3 14.9 245.6 11.2
2001-08-21 07:19:09 51°11.883 2°46.638 248.2 14.9 245.4 11.1
2001-08-21 07:19:13 51°11.876 2°46.614 247.3 14.9 244.8 11.2
2001-08-21 07:19:19 51°11.865 2°46.578 247.2 15 244.5 11.2
2001-08-21 07:19:23 51°11.858 2°46.555 247 14.9 244.3 11.2
2001-08-21 07:19:29 51°11.848 2°46.519 247 14.9 244.5 11.2
2001-08-21 07:19:33 51°11.841 2°46.495 247.7 14.9 244.9 11.2
2001-08-21 07:19:39 51°11.83 2°46.459 248.2 14.9 245.4 11.2
2001-08-21 07:19:43 51°11.824 2°46.435 248.7 14.9 245.7 11.2
2001-08-21 07:19:49 51°11.814 2°46.399 249.3 14.9 246 11.2
2001-08-21 07:19:53 51°11.807 2°46.375 249 14.9 246.2 11.2
2001-08-21 07:19:59 51°11.796 2°46.338 248.5 15 245.8 11.2
2001-08-21 07:20:03 51°11.789 2°46.315 247.8 15 244.9 11.3
2001-08-21 07:20:09 51°11.778 2°46.279 246.3 14.9 244.2 11.2
2001-08-21 07:20:13 51°11.771 2°46.256 245.8 14.9 243.7 11.3
2001-08-21 07:20:19 51°11.76 2°46.22 246.5 14.9 243.7 11.1
2001-08-21 07:20:23 51°11.753 2°46.196 246.8 14.9 244.1 11.2
2001-08-21 07:20:29 51°11.742 2°46.16 247.2 14.9 244.5 11.1
2001-08-21 07:20:33 51°11.735 2°46.137 247.8 14.9 244.9 11.2
2001-08-21 07:20:39 51°11.725 2°46.101 248 14.9 245.1 11.2
2001-08-21 07:20:43 51°11.718 2°46.077 248.3 14.9 245.6 11.2
2001-08-21 07:20:47 51°11.711 2°46.053 248.7 14.9 245.6 11.2
2001-08-21 07:20:53 51°11.701 2°46.017 248.8 14.9 245.9 11.2
2001-08-21 07:20:59 51°11.691 2°45.98 249.2 14.9 246.1 11.2
2001-08-21 07:21:03 51°11.685 2°45.956 249.2 14.9 246.4 11.2
2001-08-21 07:21:07 51°11.678 2°45.932 249.2 14.9 246.3 11.2
2001-08-21 07:21:13 51°11.668 2°45.896 249.3 14.9 246.3 11.1
2001-08-21 07:21:17 51°11.661 2°45.872 249 14.9 246.3 11.1
2001-08-21 07:21:23 51°11.651 2°45.835 249.7 14.9 246.6 11.1
2001-08-21 07:21:27 51°11.645 2°45.811 250.3 14.9 247.1 11.1
2001-08-21 07:21:33 51°11.636 2°45.775 250.3 14.9 247.4 11
2001-08-21 07:21:39 51°11.626 2°45.738 250.8 14.9 247.8 11
2001-08-21 07:21:43 51°11.62 2°45.714 251.2 14.9 247.7 10.9
2001-08-21 07:21:47 51°11.614 2°45.69 250.3 14.9 247.6 11.1
2001-08-21 07:21:53 51°11.603 2°45.654 248.8 14.9 246.2 11.1
2001-08-21 07:21:59 51°11.593 2°45.618 248.3 14.9 246.1 11
2001-08-21 07:22:03 51°11.587 2°45.594 249.2 14.8 246.1 11.1
2001-08-21 07:22:09 51°11.578 2°45.557 251 14.8 247.4 11
2001-08-21 07:22:13 51°11.571 2°45.533 251.2 14.9 248 10.9
2001-08-21 07:22:17 51°11.566 2°45.508 251.7 14.9 248.5 10.9
2001-08-21 07:22:23 51°11.556 2°45.472 251.5 14.9 248.3 11
2001-08-21 07:22:29 51°11.547 2°45.435 251 14.9 247.9 11
2001-08-21 07:22:33 51°11.541 2°45.411 250.7 14.9 247.6 11
2001-08-21 07:22:39 51°11.531 2°45.374 250.2 14.9 247.3 10.9
2001-08-21 07:22:43 51°11.525 2°45.35 250.2 14.9 247.1 10.8
2001-08-21 07:22:49 51°11.515 2°45.314 249.8 14.9 247 11
2001-08-21 07:22:53 51°11.508 2°45.29 249.3 14.9 246.8 10.9
2001-08-21 07:22:59 51°11.499 2°45.254 249.2 14.9 246.6 10.8
2001-08-21 07:23:03 51°11.492 2°45.229 249.3 14.9 246.5 10.9
2001-08-21 07:23:09 51°11.482 2°45.193 249.3 14.9 246.5 10.8
2001-08-21 07:23:13 51°11.475 2°45.169 249.2 14.9 246.6 10.9
2001-08-21 07:23:19 51°11.466 2°45.133 249.3 14.9 246.6 10.8
2001-08-21 07:23:23 51°11.459 2°45.109 249.8 14.9 246.9 10.8
2001-08-21 07:23:27 51°11.453 2°45.084 249.8 14.9 247 10.9
2001-08-21 07:23:33 51°11.443 2°45.048 249.2 14.9 246.4 10.9
2001-08-21 07:23:39 51°11.433 2°45.012 248.5 14.9 245.9 10.8
2001-08-21 07:23:43 51°11.426 2°44.988 248 14.9 245.5 10.8
2001-08-21 07:23:49 51°11.415 2°44.952 248 14.9 245.4 10.8
2001-08-21 07:23:53 51°11.409 2°44.928 248.2 14.9 245.5 10.8
2001-08-21 07:23:59 51°11.398 2°44.892 248.2 14.9 245.7 10.8
2001-08-21 07:24:03 51°11.392 2°44.868 248.8 14.9 246 10.8
2001-08-21 07:24:09 51°11.382 2°44.832 249.5 14.9 246.5 10.8
2001-08-21 07:24:13 51°11.376 2°44.808 250 14.9 247.1 10.8
2001-08-21 07:24:17 51°11.37 2°44.784 250.8 14.8 247.7 10.7
2001-08-21 07:24:23 51°11.361 2°44.747 251.5 14.8 248.3 10.8
2001-08-21 07:24:29 51°11.351 2°44.71 251.2 14.8 248.4 10.8
2001-08-21 07:24:33 51°11.345 2°44.686 250.5 14.9 247.8 10.7
2001-08-21 07:24:39 51°11.336 2°44.65 250.5 14.9 247.6 10.7
2001-08-21 07:24:43 51°11.329 2°44.625 250.3 14.9 247.7 10.8
2001-08-21 07:24:49 51°11.32 2°44.589 250.2 14.9 247.4 10.8
2001-08-21 07:24:53 51°11.313 2°44.565 250 14.9 247.4 10.8
2001-08-21 07:24:59 51°11.304 2°44.529 249.5 14.9 247 10.7
2001-08-21 07:25:03 51°11.297 2°44.504 249.8 14.9 247.1 10.7
2001-08-21 07:25:09 51°11.288 2°44.468 249.3 14.9 246.8 10.7
2001-08-21 07:25:13 51°11.281 2°44.444 249.5 14.9 246.9 10.7
2001-08-21 07:25:17 51°11.275 2°44.42 249.7 14.9 246.9 10.8
2001-08-21 07:25:23 51°11.265 2°44.384 249.8 14.9 247.2 10.8
2001-08-21 07:25:27 51°11.259 2°44.359 249.8 14.9 247.2 10.7
2001-08-21 07:25:33 51°11.249 2°44.323 250.2 14.9 247.5 10.6
2001-08-21 07:25:39 51°11.24 2°44.286 250.7 14.9 247.9 10.6
2001-08-21 07:25:43 51°11.234 2°44.262 251.3 14.9 248.4 10.7
2001-08-21 07:25:47 51°11.228 2°44.238 251.8 14.8 248.9 10.6
2001-08-21 07:25:53 51°11.22 2°44.2 252.7 14.9 249.6 10.7
2001-08-21 07:25:59 51°11.211 2°44.163 252.7 14.9 249.7 10.7
2001-08-21 07:26:03 51°11.205 2°44.139 252.3 14.9 249.7 10.7
2001-08-21 07:26:09 51°11.197 2°44.102 252.7 14.9 249.7 10.6
2001-08-21 07:26:13 51°11.191 2°44.077 252.5 14.8 249.6 10.6
2001-08-21 07:26:19 51°11.183 2°44.04 252.7 14.9 249.7 10.6
2001-08-21 07:26:23 51°11.177 2°44.016 252.3 14.9 249.4 10.6
2001-08-21 07:26:27 51°11.171 2°43.991 251.8 14.9 249.3 10.7
2001-08-21 07:26:33 51°11.162 2°43.955 251.3 14.9 248.8 10.6
2001-08-21 07:26:39 51°11.153 2°43.918 251.5 14.9 248.8 10.6
2001-08-21 07:26:43 51°11.147 2°43.894 251.5 14.8 248.8 10.6
2001-08-21 07:26:49 51°11.138 2°43.857 251.7 14.8 249 10.6
2001-08-21 07:26:53 51°11.132 2°43.832 251.7 14.8 249.1 10.6
2001-08-21 07:26:59 51°11.124 2°43.796 252.5 14.8 249.4 10.6
2001-08-21 07:27:03 51°11.118 2°43.771 253.3 14.8 250.2 10.7
2001-08-21 07:27:07 51°11.113 2°43.746 254.2 14.8 250.9 10.6
2001-08-21 07:27:13 51°11.106 2°43.709 255 14.8 251.8 10.6
2001-08-21 07:27:19 51°11.098 2°43.671 255.5 14.8 252.3 10.6
2001-08-21 07:27:23 51°11.093 2°43.646 256 14.8 252.7 10.6
2001-08-21 07:27:29 51°11.086 2°43.609 255.8 14.8 252.7 10.6
2001-08-21 07:27:33 51°11.081 2°43.584 256 14.8 252.8 10.6
2001-08-21 07:27:39 51°11.074 2°43.546 255.7 14.8 252.6 10.7
2001-08-21 07:27:43 51°11.069 2°43.521 256.2 14.8 252.9 10.6
2001-08-21 07:27:49 51°11.062 2°43.484 256.2 14.8 252.9 10.6
2001-08-21 07:27:53 51°11.057 2°43.458 256.2 14.8 253.2 10.6
2001-08-21 07:27:59 51°11.05 2°43.421 256.2 14.8 253.1 10.5
2001-08-21 07:28:03 51°11.045 2°43.396 256.3 14.8 253.3 10.6
2001-08-21 07:28:09 51°11.038 2°43.358 256.7 14.8 253.4 10.6
2001-08-21 07:28:13 51°11.034 2°43.333 257 14.8 253.7 10.7
2001-08-21 07:28:19 51°11.026 2°43.295 256.8 14.8 253.5 10.7
2001-08-21 07:28:23 51°11.022 2°43.27 256.2 14.8 253.2 10.7
2001-08-21 07:28:29 51°11.014 2°43.233 255.5 14.8 252.6 10.6
2001-08-21 07:28:33 51°11.009 2°43.208 255 14.8 252.2 10.6
2001-08-21 07:28:39 51°11.001 2°43.171 254.2 14.8 251.7 10.6
2001-08-21 07:28:43 51°10.996 2°43.146 254.2 14.8 251.3 10.7
2001-08-21 07:28:49 51°10.988 2°43.109 253.7 14.8 251.1 10.6
2001-08-21 07:28:53 51°10.983 2°43.084 254 14.8 251.2 10.7
2001-08-21 07:28:59 51°10.975 2°43.047 254.5 14.8 251.5 10.7
2001-08-21 07:29:03 51°10.97 2°43.022 254 14.8 251.4 10.6
2001-08-21 07:29:09 51°10.962 2°42.985 254 14.8 251.3 10.6
2001-08-21 07:29:13 51°10.956 2°42.96 254 14.8 251.3 10.6
2001-08-21 07:29:19 51°10.948 2°42.923 254.5 14.8 251.5 10.7
2001-08-21 07:29:23 51°10.943 2°42.898 254.2 14.8 251.6 10.7
2001-08-21 07:29:29 51°10.935 2°42.861 254 14.8 251 10.6
2001-08-21 07:29:33 51°10.929 2°42.837 252.7 14.8 250.2 10.6
2001-08-21 07:29:39 51°10.92 2°42.8 251.2 14.8 248.9 10.6
2001-08-21 07:29:43 51°10.914 2°42.776 251.2 14.8 248.7 10.6
2001-08-21 07:29:49 51°10.905 2°42.739 251.3 14.8 248.8 10.6
2001-08-21 07:29:53 51°10.9 2°42.714 252 14.8 249.4 10.6
2001-08-21 07:29:59 51°10.892 2°42.678 252.8 14.8 250.1 10.7
2001-08-21 07:30:03 51°10.887 2°42.653 253.2 14.8 250.4 10.7
2001-08-21 07:30:09 51°10.878 2°42.617 253.5 14.8 250.7 10.6
2001-08-21 07:30:13 51°10.873 2°42.592 253.3 14.8 250.6 10.6
2001-08-21 07:30:19 51°10.865 2°42.555 252.8 14.8 250.5 10.5
2001-08-21 07:30:23 51°10.859 2°42.531 252.7 14.8 250.3 10.6
2001-08-21 07:30:27 51°10.854 2°42.506 252.8 14.8 250.3 10.5
2001-08-21 07:30:33 51°10.845 2°42.47 252.8 14.8 250.4 10.4
2001-08-21 07:30:39 51°10.837 2°42.432 253.3 14.8 250.7 10.5
2001-08-21 07:30:43 51°10.832 2°42.408 253.3 14.8 251 10.5
2001-08-21 07:30:49 51°10.824 2°42.37 254 14.8 251.3 10.5
2001-08-21 07:30:53 51°10.819 2°42.345 254.5 14.8 251.4 10.4
2001-08-21 07:30:59 51°10.811 2°42.309 253.3 14.8 251.1 10.5
2001-08-21 07:31:03 51°10.805 2°42.284 252.2 14.8 249.9 10.5
2001-08-21 07:31:09 51°10.796 2°42.247 252.2 14.8 249.6 10.5
2001-08-21 07:31:13 51°10.79 2°42.223 251.2 14.8 249.1 10.4
2001-08-21 07:31:19 51°10.782 2°42.186 251.3 14.8 248.9 10.5
2001-08-21 07:31:23 51°10.775 2°42.162 250.7 14.8 248.5 10.4
2001-08-21 07:31:29 51°10.766 2°42.125 250.7 14.8 248.5 10.4
2001-08-21 07:31:33 51°10.76 2°42.101 250.3 14.8 248.3 10.5
2001-08-21 07:31:39 51°10.751 2°42.064 250.8 14.8 248.6 10.5
2001-08-21 07:31:43 51°10.746 2°42.04 251.2 14.8 248.8 10.4
2001-08-21 07:31:49 51°10.737 2°42.003 251 14.8 249 10.5
2001-08-21 07:31:53 51°10.731 2°41.979 251.5 14.8 249.1 10.4
2001-08-21 07:31:59 51°10.722 2°41.942 251.7 14.8 249.3 10.5
2001-08-21 07:32:03 51°10.716 2°41.917 251.7 14.8 249.3 10.5
2001-08-21 07:32:07 51°10.71 2°41.893 251.7 14.8 249.2 10.5
2001-08-21 07:32:13 51°10.701 2°41.856 250.8 14.8 248.8 10.4
2001-08-21 07:32:19 51°10.692 2°41.82 250.3 14.8 248.5 10.5
2001-08-21 07:32:23 51°10.686 2°41.796 249.8 14.8 248 10.4
2001-08-21 07:32:29 51°10.677 2°41.76 249.7 14.8 247.9 10.3
2001-08-21 07:32:33 51°10.671 2°41.736 249.5 14.8 247.6 10.4
2001-08-21 07:32:39 51°10.661 2°41.7 249.5 14.7 247.6 10.4
2001-08-21 07:32:43 51°10.655 2°41.675 249.8 14.7 247.7 10.4
2001-08-21 07:32:47 51°10.649 2°41.651 249.3 14.7 247.7 10.4
2001-08-21 07:32:53 51°10.639 2°41.615 249.2 14.8 247.4 10.4
2001-08-21 07:32:59 51°10.63 2°41.579 249.3 14.8 247.4 10.3
2001-08-21 07:33:03 51°10.624 2°41.555 249.7 14.8 247.5 10.4
2001-08-21 07:33:09 51°10.615 2°41.518 250 14.8 247.9 10.4
2001-08-21 07:33:13 51°10.609 2°41.494 250.7 14.8 248.3 10.4
2001-08-21 07:33:19 51°10.6 2°41.457 251 14.8 248.9 10.4
2001-08-21 07:33:23 51°10.595 2°41.433 251.7 14.8 249.4 10.4
2001-08-21 07:33:29 51°10.586 2°41.396 252.5 14.8 249.9 10.4
2001-08-21 07:33:33 51°10.581 2°41.371 252.3 14.8 250 10.4
2001-08-21 07:33:39 51°10.572 2°41.335 251.7 14.7 249.6 10.5
2001-08-21 07:33:43 51°10.566 2°41.31 251.2 14.7 249.2 10.4
2001-08-21 07:33:49 51°10.558 2°41.274 251.2 14.8 249 10.4
2001-08-21 07:33:53 51°10.552 2°41.249 251.3 14.8 249.1 10.4
2001-08-21 07:33:59 51°10.543 2°41.213 251 14.8 249.1 10.5
2001-08-21 07:34:03 51°10.537 2°41.189 250.2 14.7 248.4 10.4
2001-08-21 07:34:09 51°10.528 2°41.152 250.3 14.8 248.4 10.4
2001-08-21 07:34:13 51°10.521 2°41.128 250.2 14.8 248.2 10.5
2001-08-21 07:34:19 51°10.513 2°41.091 250.8 14.8 248.8 10.5
2001-08-21 07:34:23 51°10.507 2°41.067 251.2 14.8 249.1 10.5
2001-08-21 07:34:29 51°10.498 2°41.03 252 14.8 249.5 10.5
2001-08-21 07:34:33 51°10.493 2°41.006 251.7 14.9 249.3 10.5
2001-08-21 07:34:39 51°10.484 2°40.969 251.3 14.8 249.3 10.5
2001-08-21 07:34:43 51°10.478 2°40.945 250.8 14.8 249 10.5
2001-08-21 07:34:49 51°10.469 2°40.908 250.8 14.8 248.9 10.5
2001-08-21 07:34:53 51°10.463 2°40.884 250.8 14.8 248.8 10.5
2001-08-21 07:34:59 51°10.454 2°40.847 250.7 14.8 248.7 10.5
2001-08-21 07:35:03 51°10.448 2°40.823 250.5 14.8 248.6 10.5
2001-08-21 07:35:09 51°10.438 2°40.786 250 14.9 247.9 10.5
2001-08-21 07:35:13 51°10.432 2°40.762 249.8 14.8 248 10.6
2001-08-21 07:35:19 51°10.423 2°40.726 249.8 14.8 247.9 10.4
2001-08-21 07:35:23 51°10.417 2°40.701 249.8 14.8 248.1 10.5
2001-08-21 07:35:29 51°10.408 2°40.665 249.7 14.8 247.8 10.4
2001-08-21 07:35:33 51°10.401 2°40.641 249.7 14.8 247.7 10.5
2001-08-21 07:35:39 51°10.392 2°40.605 249.3 14.8 247.5 10.5
2001-08-21 07:35:43 51°10.385 2°40.581 248.8 14.8 247.3 10.5
2001-08-21 07:35:47 51°10.379 2°40.557 249.2 14.8 247.2 10.5
2001-08-21 07:35:53 51°10.369 2°40.52 249.7 14.8 247.5 10.6
2001-08-21 07:35:59 51°10.36 2°40.484 249.5 14.8 247.8 10.6
2001-08-21 07:36:03 51°10.354 2°40.46 250 14.8 248.1 10.5
2001-08-21 07:36:09 51°10.345 2°40.423 250.5 14.8 248.3 10.6
2001-08-21 07:36:13 51°10.339 2°40.399 250.7 14.8 248.6 10.6
2001-08-21 07:36:17 51°10.333 2°40.375 251 14.8 248.7 10.6
2001-08-21 07:36:23 51°10.325 2°40.338 250.8 14.8 248.8 10.6
2001-08-21 07:36:29 51°10.316 2°40.302 251 14.8 248.8 10.6
2001-08-21 07:36:33 51°10.31 2°40.277 250.7 14.7 248.8 10.6
2001-08-21 07:36:39 51°10.301 2°40.241 250.8 14.8 248.8 10.6
2001-08-21 07:36:43 51°10.295 2°40.216 251 14.8 248.8 10.6
2001-08-21 07:36:47 51°10.289 2°40.192 250.7 14.8 248.8 10.7
2001-08-21 07:36:53 51°10.28 2°40.156 250.3 14.8 248.5 10.6
2001-08-21 07:36:59 51°10.271 2°40.119 250.7 14.8 248.5 10.7
2001-08-21 07:37:03 51°10.265 2°40.095 250.3 14.8 248.4 10.7
2001-08-21 07:37:09 51°10.256 2°40.058 250.3 14.8 248.3 10.8
2001-08-21 07:37:13 51°10.25 2°40.034 250.2 14.8 248.3 10.8
2001-08-21 07:37:19 51°10.241 2°39.998 250.2 14.8 248.3 10.8
2001-08-21 07:37:23 51°10.235 2°39.973 250.7 14.8 248.3 10.9
2001-08-21 07:37:27 51°10.229 2°39.949 250.3 14.8 248.2 10.9
2001-08-21 07:37:33 51°10.219 2°39.913 249.5 14.8 247.8 10.9
2001-08-21 07:37:37 51°10.213 2°39.889 249.2 14.8 247.3 10.9
2001-08-21 07:37:43 51°10.203 2°39.853 249.2 14.8 247.2 10.9
2001-08-21 07:37:49 51°10.194 2°39.817 248.5 14.7 247.1 10.9
2001-08-21 07:37:53 51°10.187 2°39.793 249 14.8 247.2 10.8
2001-08-21 07:37:59 51°10.178 2°39.757 249.5 14.8 247.3 10.9
2001-08-21 07:38:03 51°10.172 2°39.733 249.5 14.8 247.7 10.9
2001-08-21 07:38:09 51°10.163 2°39.696 249.8 14.8 247.9 10.9
2001-08-21 07:38:13 51°10.157 2°39.672 250.5 14.8 248.3 11
2001-08-21 07:38:19 51°10.149 2°39.635 251.3 14.8 249.1 11
2001-08-21 07:38:23 51°10.143 2°39.611 251.5 14.8 249.4 11
2001-08-21 07:38:29 51°10.134 2°39.574 251.7 14.8 249.4 11.1
2001-08-21 07:38:33 51°10.129 2°39.549 251.7 14.8 249.4 11
2001-08-21 07:38:37 51°10.123 2°39.525 251 14.8 249.2 11
2001-08-21 07:38:43 51°10.114 2°39.489 250.5 14.8 248.5 11.1
2001-08-21 07:38:49 51°10.104 2°39.452 249.8 14.8 248.1 11.1
2001-08-21 07:38:53 51°10.098 2°39.428 249.8 14.8 248 11.2
2001-08-21 07:38:59 51°10.089 2°39.392 250.3 14.8 248.2 11.1
2001-08-21 07:39:03 51°10.083 2°39.367 250.2 14.8 248.2 11.3
2001-08-21 07:39:09 51°10.074 2°39.331 250.7 14.8 248.4 11.2
2001-08-21 07:39:13 51°10.068 2°39.306 250.8 14.8 248.7 11.3
2001-08-21 07:39:19 51°10.059 2°39.27 251.2 14.8 249 11.4
2001-08-21 07:39:23 51°10.053 2°39.245 251.2 14.8 248.9 11.4
2001-08-21 07:39:29 51°10.045 2°39.209 251 14.8 248.9 11.3
2001-08-21 07:39:33 51°10.039 2°39.184 250.7 14.8 248.7 11.5
2001-08-21 07:39:39 51°10.03 2°39.148 250.8 14.8 248.5 11.4
2001-08-21 07:39:43 51°10.023 2°39.124 250.2 14.8 248.3 11.5
2001-08-21 07:39:49 51°10.014 2°39.087 250 14.8 248.1 11.5
2001-08-21 07:39:53 51°10.008 2°39.063 250.2 14.8 248.2 11.4
2001-08-21 07:39:59 51°9.999 2°39.027 250.5 14.8 248.2 11.6
2001-08-21 07:40:03 51°9.993 2°39.003 250.2 14.8 248.3 11.5
2001-08-21 07:40:09 51°9.984 2°38.966 249.8 14.8 248 11.6
2001-08-21 07:40:13 51°9.978 2°38.942 250.3 14.8 248 11.5
2001-08-21 07:40:19 51°9.968 2°38.906 250 14.8 248 11.6
2001-08-21 07:40:23 51°9.962 2°38.882 249.7 14.8 247.7 11.6
2001-08-21 07:40:29 51°9.953 2°38.846 250.2 14.8 247.9 11.7
2001-08-21 07:40:33 51°9.947 2°38.821 250 14.8 247.9 11.7
2001-08-21 07:40:39 51°9.937 2°38.785 250 14.8 247.9 11.7
2001-08-21 07:40:43 51°9.931 2°38.761 249.8 14.8 247.7 11.8
2001-08-21 07:40:49 51°9.922 2°38.725 249.3 14.8 247.4 11.8
2001-08-21 07:40:53 51°9.915 2°38.701 249.3 14.8 247.4 11.8
2001-08-21 07:40:59 51°9.906 2°38.665 249.8 14.8 247.7 11.8
2001-08-21 07:41:03 51°9.9 2°38.64 249.7 14.8 247.7 11.8
2001-08-21 07:41:09 51°9.891 2°38.604 250.3 14.8 247.8 11.9
2001-08-21 07:41:13 51°9.884 2°38.58 249.7 14.8 247.7 11.9
2001-08-21 07:41:19 51°9.875 2°38.544 249.5 14.8 247.5 11.9
2001-08-21 07:41:23 51°9.869 2°38.519 250 14.8 247.7 12
2001-08-21 07:41:29 51°9.859 2°38.483 249.8 14.8 247.7 12
2001-08-21 07:41:33 51°9.853 2°38.459 249.8 14.8 247.8 12
2001-08-21 07:41:39 51°9.844 2°38.423 250.2 14.8 247.9 12
2001-08-21 07:41:43 51°9.838 2°38.398 250.3 14.8 248.2 12.1
2001-08-21 07:41:49 51°9.829 2°38.362 250.5 14.8 248.3 12.1
2001-08-21 07:41:53 51°9.823 2°38.337 251 14.8 248.7 12.1
2001-08-21 07:41:59 51°9.814 2°38.301 251 14.8 248.7 12.2
2001-08-21 07:42:03 51°9.808 2°38.276 251.5 14.8 249.2 12.3
2001-08-21 07:42:09 51°9.8 2°38.24 251.7 14.8 249.3 12.3